Hyalite Weather Station

This weather station provides temperature, wind speed, gust or max wind speed, and wind direction at 9982ft near the summit of Flanders Mountain. This data can be used with temperature and precipitation data from the Shower Falls SNOTEL site. If the data has not been updated recently you can view it directly on datagarrison.com

Elevation
9982ft
Jump to table bottom
Date Time Temperature
deg F
RH, % Wind Speed Wind Gust Wind Direction
12/07/22 02:00 9.8 80 15 24 W - 253
12/07/22 01:00 9.8 80 17 30 W - 257
12/07/22 00:00 10.0 81 18 29 W - 256
12/06/22 23:00 10.8 79 18 32 W - 261
12/06/22 22:00 11.6 78 19 33 W - 263
12/06/22 21:00 11.6 77 22 39 W - 260
12/06/22 20:00 12.0 77 22 36 W - 257
12/06/22 19:00 12.3 76 25 40 W - 253
12/06/22 18:00 11.8 79 27 40 W - 256
12/06/22 17:00 12.1 79 27 45 W - 250
12/06/22 16:00 12.8 76 27 39 W - 251
12/06/22 15:00 12.8 77 30 48 W - 254
12/06/22 14:00 12.6 77 28 40 W - 253
12/06/22 13:00 12.3 79 27 40 W - 254
12/06/22 12:00 11.5 81 24 36 W - 257
12/06/22 11:00 11.1 81 24 36 W - 257
12/06/22 10:00 10.2 82 24 36 W - 257
12/06/22 09:00 10.2 81 24 37 W - 257
12/06/22 08:00 11.0 81 22 39 W - 253
12/06/22 07:00 10.1 82 25 40 W - 260
12/06/22 06:00 9.1 83 24 38 W - 258
12/06/22 05:00 8.6 82 24 37 W - 256
12/06/22 04:00 8.2 82 25 39 W - 254
12/06/22 03:00 8.0 83 29 44 W - 257
12/06/22 02:00 8.0 83 27 40 W - 256
12/06/22 01:00 7.6 83 24 41 W - 253
12/06/22 00:00 7.8 83 20 35 W - 253
12/05/22 23:00 7.9 83 19 31 W - 253
12/05/22 22:00 8.1 83 19 30 W - 251
12/05/22 21:00 8.3 83 17 31 W - 253
12/05/22 20:00 8.4 83 22 34 W - 257
12/05/22 19:00 8.5 83 23 36 W - 257
12/05/22 18:00 8.8 83 24 37 W - 250
12/05/22 17:00 9.1 83 24 34 W - 250
12/05/22 16:00 9.5 82 24 35 W - 260
12/05/22 15:00 9.9 83 23 34 W - 260
12/05/22 14:00 10.2 82 24 37 W - 254
12/05/22 13:00 11.6 82 19 36 W - 251
12/05/22 12:00 10.1 82 14 27 W - 256
12/05/22 11:00 10.2 83 18 31 W - 256
12/05/22 10:00 10.6 83 15 30 W - 261
12/05/22 09:00 10.8 82 18 32 W - 253
12/05/22 08:00 10.7 83 17 30 W - 267
12/05/22 07:00 10.4 83 19 34 W - 264
12/05/22 06:00 11.5 82 19 31 W - 264
12/05/22 05:00 13.3 82 19 31 W - 265
12/05/22 04:00 13.9 83 18 32 W - 268
12/05/22 03:00 14.1 82 11 30 W - 267
12/05/22 02:00 17.0 82 13 21 SW - 247
12/05/22 01:00 17.8 82 7 15 SW - 243